sensor_id;sensor_type;location;lat;lon;timestamp;P1;durP1;ratioP1;P2;durP2;ratioP2
4694;SDS011;2361;49.540;8.390;2023-02-23T00:01:52;15.97;;;8.20;;
4694;SDS011;2361;49.540;8.390;2023-02-23T00:04:23;14.23;;;8.57;;
4694;SDS011;2361;49.540;8.390;2023-02-23T00:06:50;16.17;;;9.07;;
4694;SDS011;2361;49.540;8.390;2023-02-23T00:09:18;15.90;;;8.97;;
4694;SDS011;2361;49.540;8.390;2023-02-23T00:11:50;13.77;;;7.90;;
4694;SDS011;2361;49.540;8.390;2023-02-23T00:14:25;10.63;;;6.97;;
4694;SDS011;2361;49.540;8.390;2023-02-23T00:16:54;17.57;;;9.77;;
4694;SDS011;2361;49.540;8.390;2023-02-23T00:19:21;11.70;;;7.47;;
4694;SDS011;2361;49.540;8.390;2023-02-23T00:21:50;14.97;;;8.07;;
4694;SDS011;2361;49.540;8.390;2023-02-23T00:24:18;13.17;;;8.47;;
4694;SDS011;2361;49.540;8.390;2023-02-23T00:26:46;11.63;;;8.03;;
4694;SDS011;2361;49.540;8.390;2023-02-23T00:29:16;13.03;;;7.67;;
4694;SDS011;2361;49.540;8.390;2023-02-23T00:31:47;19.07;;;9.13;;
4694;SDS011;2361;49.540;8.390;2023-02-23T00:34:17;13.20;;;7.80;;
4694;SDS011;2361;49.540;8.390;2023-02-23T00:36:48;12.63;;;7.97;;
4694;SDS011;2361;49.540;8.390;2023-02-23T00:39:20;16.60;;;8.07;;
4694;SDS011;2361;49.540;8.390;2023-02-23T00:41:54;11.00;;;7.27;;
4694;SDS011;2361;49.540;8.390;2023-02-23T00:44:22;13.03;;;8.13;;
4694;SDS011;2361;49.540;8.390;2023-02-23T00:46:50;11.47;;;7.60;;
4694;SDS011;2361;49.540;8.390;2023-02-23T00:49:18;15.20;;;8.33;;
4694;SDS011;2361;49.540;8.390;2023-02-23T00:51:47;14.40;;;7.27;;
4694;SDS011;2361;49.540;8.390;2023-02-23T00:54:14;13.67;;;8.70;;
4694;SDS011;2361;49.540;8.390;2023-02-23T00:56:42;14.73;;;7.53;;
4694;SDS011;2361;49.540;8.390;2023-02-23T00:59:10;16.07;;;9.40;;
4694;SDS011;2361;49.540;8.390;2023-02-23T01:01:39;18.73;;;9.20;;
4694;SDS011;2361;49.540;8.390;2023-02-23T01:04:10;17.37;;;8.80;;
4694;SDS011;2361;49.540;8.390;2023-02-23T01:06:38;13.77;;;7.90;;
4694;SDS011;2361;49.540;8.390;2023-02-23T01:09:11;11.87;;;8.30;;
4694;SDS011;2361;49.540;8.390;2023-02-23T01:11:47;10.87;;;7.53;;
4694;SDS011;2361;49.540;8.390;2023-02-23T01:14:16;11.37;;;7.70;;
4694;SDS011;2361;49.540;8.390;2023-02-23T01:16:43;13.20;;;7.77;;
4694;SDS011;2361;49.540;8.390;2023-02-23T01:19:10;12.33;;;7.87;;
4694;SDS011;2361;49.540;8.390;2023-02-23T01:21:39;13.17;;;7.30;;
4694;SDS011;2361;49.540;8.390;2023-02-23T01:24:11;15.37;;;8.90;;
4694;SDS011;2361;49.540;8.390;2023-02-23T01:26:39;15.63;;;9.17;;
4694;SDS011;2361;49.540;8.390;2023-02-23T01:29:13;15.37;;;7.97;;
4694;SDS011;2361;49.540;8.390;2023-02-23T01:31:43;12.67;;;7.70;;
4694;SDS011;2361;49.540;8.390;2023-02-23T01:34:13;16.17;;;8.37;;
4694;SDS011;2361;49.540;8.390;2023-02-23T01:36:41;11.70;;;7.97;;
4694;SDS011;2361;49.540;8.390;2023-02-23T01:39:12;16.30;;;8.97;;
4694;SDS011;2361;49.540;8.390;2023-02-23T01:41:41;11.87;;;7.20;;
4694;SDS011;2361;49.540;8.390;2023-02-23T01:46:41;16.37;;;7.23;;
4694;SDS011;2361;49.540;8.390;2023-02-23T01:49:12;11.90;;;8.07;;
4694;SDS011;2361;49.540;8.390;2023-02-23T01:51:54;12.10;;;7.17;;
4694;SDS011;2361;49.540;8.390;2023-02-23T01:54:29;13.87;;;8.20;;
4694;SDS011;2361;49.540;8.390;2023-02-23T01:57:01;15.73;;;7.67;;
4694;SDS011;2361;49.540;8.390;2023-02-23T01:59:38;11.97;;;8.23;;
4694;SDS011;2361;49.540;8.390;2023-02-23T02:02:10;11.00;;;6.77;;
4694;SDS011;2361;49.540;8.390;2023-02-23T02:04:39;12.10;;;7.67;;
4694;SDS011;2361;49.540;8.390;2023-02-23T02:07:11;13.13;;;7.03;;
4694;SDS011;2361;49.540;8.390;2023-02-23T02:09:42;14.03;;;7.27;;
4694;SDS011;2361;49.540;8.390;2023-02-23T02:12:30;12.63;;;7.47;;
4694;SDS011;2361;49.540;8.390;2023-02-23T02:14:57;13.90;;;7.63;;
4694;SDS011;2361;49.540;8.390;2023-02-23T02:26:18;14.50;;;8.47;;
4694;SDS011;2361;49.540;8.390;2023-02-23T02:29:19;18.03;;;7.90;;
4694;SDS011;2361;49.540;8.390;2023-02-23T02:32:09;11.90;;;7.20;;
4694;SDS011;2361;49.540;8.390;2023-02-23T02:38:45;14.60;;;8.07;;
4694;SDS011;2361;49.540;8.390;2023-02-23T02:41:56;17.90;;;8.50;;
4694;SDS011;2361;49.540;8.390;2023-02-23T02:44:48;15.20;;;8.03;;
4694;SDS011;2361;49.540;8.390;2023-02-23T02:47:41;10.27;;;6.77;;
4694;SDS011;2361;49.540;8.390;2023-02-23T02:52:58;13.40;;;8.40;;
4694;SDS011;2361;49.540;8.390;2023-02-23T02:55:31;18.40;;;10.87;;
4694;SDS011;2361;49.540;8.390;2023-02-23T02:58:03;25.10;;;12.70;;
4694;SDS011;2361;49.540;8.390;2023-02-23T03:00:37;19.03;;;9.90;;
4694;SDS011;2361;49.540;8.390;2023-02-23T03:03:39;16.30;;;8.97;;
4694;SDS011;2361;49.540;8.390;2023-02-23T03:06:46;9.00;;;6.23;;
4694;SDS011;2361;49.540;8.390;2023-02-23T03:09:45;15.57;;;8.27;;
4694;SDS011;2361;49.540;8.390;2023-02-23T03:12:56;17.50;;;10.33;;
4694;SDS011;2361;49.540;8.390;2023-02-23T03:16:14;23.63;;;11.53;;
4694;SDS011;2361;49.540;8.390;2023-02-23T03:19:39;17.87;;;8.87;;
4694;SDS011;2361;49.540;8.390;2023-02-23T03:22:47;16.27;;;6.80;;
4694;SDS011;2361;49.540;8.390;2023-02-23T03:28:54;16.17;;;9.37;;
4694;SDS011;2361;49.540;8.390;2023-02-23T03:32:14;19.57;;;10.50;;
4694;SDS011;2361;49.540;8.390;2023-02-23T03:35:17;11.87;;;8.23;;
4694;SDS011;2361;49.540;8.390;2023-02-23T03:38:12;14.47;;;9.90;;
4694;SDS011;2361;49.540;8.390;2023-02-23T03:41:06;24.60;;;11.17;;
4694;SDS011;2361;49.540;8.390;2023-02-23T03:43:57;16.77;;;9.77;;
4694;SDS011;2361;49.540;8.390;2023-02-23T03:46:46;10.97;;;7.17;;
4694;SDS011;2361;49.540;8.390;2023-02-23T03:49:33;14.80;;;7.80;;
4694;SDS011;2361;49.540;8.390;2023-02-23T03:52:27;9.17;;;6.50;;
4694;SDS011;2361;49.540;8.390;2023-02-23T03:55:21;9.67;;;6.53;;
4694;SDS011;2361;49.540;8.390;2023-02-23T03:58:13;15.70;;;7.70;;
4694;SDS011;2361;49.540;8.390;2023-02-23T04:01:02;18.77;;;7.00;;
4694;SDS011;2361;49.540;8.390;2023-02-23T04:03:49;17.03;;;8.70;;
4694;SDS011;2361;49.540;8.390;2023-02-23T04:06:38;19.40;;;10.27;;
4694;SDS011;2361;49.540;8.390;2023-02-23T04:09:27;20.07;;;10.70;;
4694;SDS011;2361;49.540;8.390;2023-02-23T04:12:19;23.53;;;11.67;;
4694;SDS011;2361;49.540;8.390;2023-02-23T04:15:31;22.30;;;12.00;;
4694;SDS011;2361;49.540;8.390;2023-02-23T04:18:06;21.50;;;11.43;;
4694;SDS011;2361;49.540;8.390;2023-02-23T04:20:39;21.17;;;11.97;;
4694;SDS011;2361;49.540;8.390;2023-02-23T04:23:05;16.73;;;9.60;;
4694;SDS011;2361;49.540;8.390;2023-02-23T04:25:32;17.00;;;8.70;;
4694;SDS011;2361;49.540;8.390;2023-02-23T04:27:59;13.43;;;7.57;;
4694;SDS011;2361;49.540;8.390;2023-02-23T04:30:26;13.77;;;8.17;;
4694;SDS011;2361;49.540;8.390;2023-02-23T04:32:54;11.77;;;8.10;;
4694;SDS011;2361;49.540;8.390;2023-02-23T04:35:21;8.67;;;7.03;;
4694;SDS011;2361;49.540;8.390;2023-02-23T04:37:48;13.50;;;7.37;;
4694;SDS011;2361;49.540;8.390;2023-02-23T04:40:16;8.37;;;6.10;;
4694;SDS011;2361;49.540;8.390;2023-02-23T04:42:43;18.50;;;7.53;;
4694;SDS011;2361;49.540;8.390;2023-02-23T04:45:10;10.93;;;7.40;;
4694;SDS011;2361;49.540;8.390;2023-02-23T04:47:37;13.30;;;6.80;;
4694;SDS011;2361;49.540;8.390;2023-02-23T04:50:04;12.50;;;7.90;;
4694;SDS011;2361;49.540;8.390;2023-02-23T04:52:31;11.90;;;8.00;;
4694;SDS011;2361;49.540;8.390;2023-02-23T04:55:00;13.77;;;7.60;;
4694;SDS011;2361;49.540;8.390;2023-02-23T04:57:26;15.07;;;8.70;;
4694;SDS011;2361;49.540;8.390;2023-02-23T04:59:54;14.77;;;7.73;;
4694;SDS011;2361;49.540;8.390;2023-02-23T05:02:21;16.97;;;8.90;;
4694;SDS011;2361;49.540;8.390;2023-02-23T05:04:48;11.07;;;7.70;;
4694;SDS011;2361;49.540;8.390;2023-02-23T05:07:15;12.00;;;8.13;;
4694;SDS011;2361;49.540;8.390;2023-02-23T05:09:41;17.10;;;9.57;;
4694;SDS011;2361;49.540;8.390;2023-02-23T05:12:08;14.07;;;8.07;;
4694;SDS011;2361;49.540;8.390;2023-02-23T05:14:35;18.03;;;9.23;;
4694;SDS011;2361;49.540;8.390;2023-02-23T05:17:02;18.77;;;8.77;;
4694;SDS011;2361;49.540;8.390;2023-02-23T05:19:29;12.30;;;7.23;;
4694;SDS011;2361;49.540;8.390;2023-02-23T05:21:56;14.70;;;8.30;;
4694;SDS011;2361;49.540;8.390;2023-02-23T05:24:23;14.83;;;7.17;;
4694;SDS011;2361;49.540;8.390;2023-02-23T05:26:50;17.77;;;8.97;;
4694;SDS011;2361;49.540;8.390;2023-02-23T05:29:18;18.50;;;8.97;;
4694;SDS011;2361;49.540;8.390;2023-02-23T05:31:45;12.07;;;7.80;;
4694;SDS011;2361;49.540;8.390;2023-02-23T05:34:13;14.90;;;8.87;;
4694;SDS011;2361;49.540;8.390;2023-02-23T05:36:42;16.33;;;8.40;;
4694;SDS011;2361;49.540;8.390;2023-02-23T05:39:09;15.60;;;7.87;;
4694;SDS011;2361;49.540;8.390;2023-02-23T05:41:35;16.67;;;7.67;;
4694;SDS011;2361;49.540;8.390;2023-02-23T05:44:03;13.30;;;7.27;;
4694;SDS011;2361;49.540;8.390;2023-02-23T05:46:30;15.60;;;8.50;;
4694;SDS011;2361;49.540;8.390;2023-02-23T05:48:57;12.37;;;8.30;;
4694;SDS011;2361;49.540;8.390;2023-02-23T05:51:26;16.77;;;9.40;;
4694;SDS011;2361;49.540;8.390;2023-02-23T05:53:55;17.33;;;6.87;;
4694;SDS011;2361;49.540;8.390;2023-02-23T05:56:23;15.50;;;8.67;;
4694;SDS011;2361;49.540;8.390;2023-02-23T05:58:51;13.57;;;7.57;;
4694;SDS011;2361;49.540;8.390;2023-02-23T06:01:21;13.40;;;7.90;;
4694;SDS011;2361;49.540;8.390;2023-02-23T06:03:48;11.67;;;6.97;;
4694;SDS011;2361;49.540;8.390;2023-02-23T06:06:16;15.43;;;8.60;;
4694;SDS011;2361;49.540;8.390;2023-02-23T06:08:43;15.97;;;7.23;;
4694;SDS011;2361;49.540;8.390;2023-02-23T06:11:11;15.57;;;7.60;;
4694;SDS011;2361;49.540;8.390;2023-02-23T06:13:38;16.50;;;9.77;;
4694;SDS011;2361;49.540;8.390;2023-02-23T06:16:05;14.50;;;9.40;;
4694;SDS011;2361;49.540;8.390;2023-02-23T06:18:33;11.53;;;7.90;;
4694;SDS011;2361;49.540;8.390;2023-02-23T06:21:01;13.70;;;8.10;;
4694;SDS011;2361;49.540;8.390;2023-02-23T06:23:29;10.40;;;7.67;;
4694;SDS011;2361;49.540;8.390;2023-02-23T06:25:57;20.87;;;9.77;;
4694;SDS011;2361;49.540;8.390;2023-02-23T06:28:25;14.13;;;8.53;;
4694;SDS011;2361;49.540;8.390;2023-02-23T06:30:53;18.77;;;8.07;;
4694;SDS011;2361;49.540;8.390;2023-02-23T06:33:21;22.47;;;8.23;;
4694;SDS011;2361;49.540;8.390;2023-02-23T06:35:50;17.37;;;8.40;;
4694;SDS011;2361;49.540;8.390;2023-02-23T06:38:17;13.00;;;7.87;;
4694;SDS011;2361;49.540;8.390;2023-02-23T06:40:45;15.27;;;8.50;;
4694;SDS011;2361;49.540;8.390;2023-02-23T06:43:12;25.20;;;8.90;;
4694;SDS011;2361;49.540;8.390;2023-02-23T06:45:39;20.33;;;8.67;;
4694;SDS011;2361;49.540;8.390;2023-02-23T06:48:06;18.40;;;10.37;;
4694;SDS011;2361;49.540;8.390;2023-02-23T06:50:33;14.37;;;7.60;;
4694;SDS011;2361;49.540;8.390;2023-02-23T06:53:00;13.53;;;8.37;;
4694;SDS011;2361;49.540;8.390;2023-02-23T06:55:27;18.13;;;10.20;;
4694;SDS011;2361;49.540;8.390;2023-02-23T06:57:54;19.33;;;11.20;;
4694;SDS011;2361;49.540;8.390;2023-02-23T07:00:21;17.53;;;10.87;;
4694;SDS011;2361;49.540;8.390;2023-02-23T07:02:49;15.80;;;9.27;;
4694;SDS011;2361;49.540;8.390;2023-02-23T07:05:15;16.77;;;10.07;;
4694;SDS011;2361;49.540;8.390;2023-02-23T07:07:43;18.27;;;9.80;;
4694;SDS011;2361;49.540;8.390;2023-02-23T07:10:10;15.13;;;9.10;;
4694;SDS011;2361;49.540;8.390;2023-02-23T07:12:37;15.50;;;7.90;;
4694;SDS011;2361;49.540;8.390;2023-02-23T07:15:04;14.73;;;8.57;;
4694;SDS011;2361;49.540;8.390;2023-02-23T07:17:32;14.27;;;9.07;;
4694;SDS011;2361;49.540;8.390;2023-02-23T07:19:59;13.77;;;8.07;;
4694;SDS011;2361;49.540;8.390;2023-02-23T07:22:26;15.27;;;8.33;;
4694;SDS011;2361;49.540;8.390;2023-02-23T07:24:55;15.40;;;9.07;;
4694;SDS011;2361;49.540;8.390;2023-02-23T07:27:22;23.03;;;12.00;;
4694;SDS011;2361;49.540;8.390;2023-02-23T07:29:50;14.07;;;8.67;;
4694;SDS011;2361;49.540;8.390;2023-02-23T07:32:17;20.13;;;8.97;;
4694;SDS011;2361;49.540;8.390;2023-02-23T07:34:44;15.40;;;8.37;;
4694;SDS011;2361;49.540;8.390;2023-02-23T07:37:13;13.97;;;8.50;;
4694;SDS011;2361;49.540;8.390;2023-02-23T07:39:40;15.77;;;7.53;;
4694;SDS011;2361;49.540;8.390;2023-02-23T07:42:07;14.90;;;8.17;;
4694;SDS011;2361;49.540;8.390;2023-02-23T07:44:34;15.77;;;9.13;;
4694;SDS011;2361;49.540;8.390;2023-02-23T07:47:01;14.00;;;8.70;;
4694;SDS011;2361;49.540;8.390;2023-02-23T07:49:28;13.70;;;8.80;;
4694;SDS011;2361;49.540;8.390;2023-02-23T07:51:55;15.40;;;8.47;;
4694;SDS011;2361;49.540;8.390;2023-02-23T07:54:23;16.97;;;9.17;;
4694;SDS011;2361;49.540;8.390;2023-02-23T07:56:51;13.47;;;7.80;;
4694;SDS011;2361;49.540;8.390;2023-02-23T07:59:19;19.77;;;9.50;;
4694;SDS011;2361;49.540;8.390;2023-02-23T08:01:46;15.77;;;7.70;;
4694;SDS011;2361;49.540;8.390;2023-02-23T08:04:13;27.60;;;13.90;;
4694;SDS011;2361;49.540;8.390;2023-02-23T08:06:40;33.70;;;14.80;;
4694;SDS011;2361;49.540;8.390;2023-02-23T08:09:06;19.70;;;11.80;;
4694;SDS011;2361;49.540;8.390;2023-02-23T08:11:34;28.90;;;14.37;;
4694;SDS011;2361;49.540;8.390;2023-02-23T08:14:01;22.33;;;12.37;;
4694;SDS011;2361;49.540;8.390;2023-02-23T08:16:28;28.90;;;14.03;;
4694;SDS011;2361;49.540;8.390;2023-02-23T08:18:57;22.90;;;11.37;;
4694;SDS011;2361;49.540;8.390;2023-02-23T08:21:26;28.50;;;14.20;;
4694;SDS011;2361;49.540;8.390;2023-02-23T08:23:55;19.10;;;10.10;;
4694;SDS011;2361;49.540;8.390;2023-02-23T08:26:25;16.50;;;9.43;;
4694;SDS011;2361;49.540;8.390;2023-02-23T08:28:53;16.83;;;9.87;;
4694;SDS011;2361;49.540;8.390;2023-02-23T08:31:20;19.97;;;10.50;;
4694;SDS011;2361;49.540;8.390;2023-02-23T08:33:49;30.00;;;13.87;;
4694;SDS011;2361;49.540;8.390;2023-02-23T08:36:17;22.80;;;11.20;;
4694;SDS011;2361;49.540;8.390;2023-02-23T08:38:45;20.50;;;10.67;;
4694;SDS011;2361;49.540;8.390;2023-02-23T08:41:13;20.03;;;12.00;;
4694;SDS011;2361;49.540;8.390;2023-02-23T08:43:40;21.97;;;11.77;;
4694;SDS011;2361;49.540;8.390;2023-02-23T08:46:09;22.20;;;12.23;;
4694;SDS011;2361;49.540;8.390;2023-02-23T08:48:36;19.60;;;10.77;;
4694;SDS011;2361;49.540;8.390;2023-02-23T08:51:05;21.83;;;11.30;;
4694;SDS011;2361;49.540;8.390;2023-02-23T08:53:33;20.50;;;11.90;;
4694;SDS011;2361;49.540;8.390;2023-02-23T08:56:02;17.77;;;10.33;;
4694;SDS011;2361;49.540;8.390;2023-02-23T08:58:32;17.20;;;9.80;;
4694;SDS011;2361;49.540;8.390;2023-02-23T09:01:01;29.00;;;11.40;;
4694;SDS011;2361;49.540;8.390;2023-02-23T09:03:29;18.17;;;10.87;;
4694;SDS011;2361;49.540;8.390;2023-02-23T09:06:05;14.70;;;9.67;;
4694;SDS011;2361;49.540;8.390;2023-02-23T09:08:38;15.53;;;10.87;;
4694;SDS011;2361;49.540;8.390;2023-02-23T09:11:05;19.40;;;11.30;;
4694;SDS011;2361;49.540;8.390;2023-02-23T09:13:32;21.77;;;11.80;;
4694;SDS011;2361;49.540;8.390;2023-02-23T09:15:59;16.00;;;10.00;;
4694;SDS011;2361;49.540;8.390;2023-02-23T09:18:29;16.20;;;9.40;;
4694;SDS011;2361;49.540;8.390;2023-02-23T09:20:57;15.07;;;11.50;;
4694;SDS011;2361;49.540;8.390;2023-02-23T09:23:27;13.30;;;9.07;;
4694;SDS011;2361;49.540;8.390;2023-02-23T09:25:54;12.30;;;8.33;;
4694;SDS011;2361;49.540;8.390;2023-02-23T09:28:21;14.03;;;9.50;;
4694;SDS011;2361;49.540;8.390;2023-02-23T09:30:48;12.07;;;8.70;;
4694;SDS011;2361;49.540;8.390;2023-02-23T09:33:15;23.47;;;15.20;;
4694;SDS011;2361;49.540;8.390;2023-02-23T09:35:43;13.93;;;9.57;;
4694;SDS011;2361;49.540;8.390;2023-02-23T09:38:10;11.53;;;8.90;;
4694;SDS011;2361;49.540;8.390;2023-02-23T09:40:50;11.27;;;7.10;;
4694;SDS011;2361;49.540;8.390;2023-02-23T09:49:10;8.40;;;5.60;;
4694;SDS011;2361;49.540;8.390;2023-02-23T09:51:45;6.40;;;4.40;;
4694;SDS011;2361;49.540;8.390;2023-02-23T09:54:19;6.87;;;5.23;;
4694;SDS011;2361;49.540;8.390;2023-02-23T09:56:50;7.73;;;5.30;;
4694;SDS011;2361;49.540;8.390;2023-02-23T09:59:21;4.63;;;4.07;;
4694;SDS011;2361;49.540;8.390;2023-02-23T10:04:35;9.47;;;5.20;;
4694;SDS011;2361;49.540;8.390;2023-02-23T10:07:53;10.63;;;5.40;;
4694;SDS011;2361;49.540;8.390;2023-02-23T10:10:41;9.50;;;5.33;;
4694;SDS011;2361;49.540;8.390;2023-02-23T10:13:20;8.60;;;5.90;;
4694;SDS011;2361;49.540;8.390;2023-02-23T10:16:23;10.53;;;5.53;;
4694;SDS011;2361;49.540;8.390;2023-02-23T10:19:18;8.43;;;5.07;;
4694;SDS011;2361;49.540;8.390;2023-02-23T10:22:00;7.43;;;4.90;;
4694;SDS011;2361;49.540;8.390;2023-02-23T10:24:34;7.57;;;5.97;;
4694;SDS011;2361;49.540;8.390;2023-02-23T10:27:17;8.03;;;5.60;;
4694;SDS011;2361;49.540;8.390;2023-02-23T10:29:47;11.03;;;5.37;;
4694;SDS011;2361;49.540;8.390;2023-02-23T10:32:45;8.37;;;6.47;;
4694;SDS011;2361;49.540;8.390;2023-02-23T10:35:17;8.73;;;6.57;;
4694;SDS011;2361;49.540;8.390;2023-02-23T10:37:46;8.07;;;6.60;;
4694;SDS011;2361;49.540;8.390;2023-02-23T10:40:22;9.00;;;6.30;;
4694;SDS011;2361;49.540;8.390;2023-02-23T10:42:55;7.60;;;5.97;;
4694;SDS011;2361;49.540;8.390;2023-02-23T10:45:24;8.43;;;6.13;;
4694;SDS011;2361;49.540;8.390;2023-02-23T10:50:35;7.57;;;6.10;;
4694;SDS011;2361;49.540;8.390;2023-02-23T10:58:38;5.37;;;4.43;;
4694;SDS011;2361;49.540;8.390;2023-02-23T11:01:12;7.60;;;4.60;;
4694;SDS011;2361;49.540;8.390;2023-02-23T11:03:46;9.63;;;5.53;;
4694;SDS011;2361;49.540;8.390;2023-02-23T11:06:32;7.73;;;4.70;;
4694;SDS011;2361;49.540;8.390;2023-02-23T11:09:38;8.00;;;5.47;;
4694;SDS011;2361;49.540;8.390;2023-02-23T11:12:15;9.57;;;5.37;;
4694;SDS011;2361;49.540;8.390;2023-02-23T11:15:19;10.70;;;5.93;;
4694;SDS011;2361;49.540;8.390;2023-02-23T11:18:18;9.93;;;5.37;;
4694;SDS011;2361;49.540;8.390;2023-02-23T11:20:48;8.97;;;5.63;;
4694;SDS011;2361;49.540;8.390;2023-02-23T11:23:23;8.67;;;5.40;;
4694;SDS011;2361;49.540;8.390;2023-02-23T11:25:59;7.83;;;4.80;;
4694;SDS011;2361;49.540;8.390;2023-02-23T11:28:35;14.33;;;5.30;;
4694;SDS011;2361;49.540;8.390;2023-02-23T11:31:14;10.17;;;6.60;;
4694;SDS011;2361;49.540;8.390;2023-02-23T11:33:46;8.10;;;5.43;;
4694;SDS011;2361;49.540;8.390;2023-02-23T11:38:55;9.67;;;5.37;;
4694;SDS011;2361;49.540;8.390;2023-02-23T11:41:31;11.33;;;4.83;;
4694;SDS011;2361;49.540;8.390;2023-02-23T11:44:00;10.70;;;6.80;;
4694;SDS011;2361;49.540;8.390;2023-02-23T11:46:32;9.80;;;5.47;;
4694;SDS011;2361;49.540;8.390;2023-02-23T11:49:07;14.83;;;4.90;;
4694;SDS011;2361;49.540;8.390;2023-02-23T11:51:45;6.97;;;5.10;;
4694;SDS011;2361;49.540;8.390;2023-02-23T11:54:26;13.43;;;5.80;;
4694;SDS011;2361;49.540;8.390;2023-02-23T11:56:56;8.87;;;5.13;;
4694;SDS011;2361;49.540;8.390;2023-02-23T11:59:34;9.57;;;5.20;;
4694;SDS011;2361;49.540;8.390;2023-02-23T12:02:05;5.60;;;3.77;;
4694;SDS011;2361;49.540;8.390;2023-02-23T12:05:16;6.57;;;4.27;;
4694;SDS011;2361;49.540;8.390;2023-02-23T12:10:43;8.83;;;4.90;;
4694;SDS011;2361;49.540;8.390;2023-02-23T12:13:23;14.80;;;6.67;;
4694;SDS011;2361;49.540;8.390;2023-02-23T12:24:42;12.63;;;7.53;;
4694;SDS011;2361;49.540;8.390;2023-02-23T12:27:24;8.30;;;4.20;;
4694;SDS011;2361;49.540;8.390;2023-02-23T12:31:00;11.53;;;6.67;;
4694;SDS011;2361;49.540;8.390;2023-02-23T12:34:04;7.63;;;4.93;;
4694;SDS011;2361;49.540;8.390;2023-02-23T12:37:01;11.70;;;6.80;;
4694;SDS011;2361;49.540;8.390;2023-02-23T12:39:50;8.23;;;5.37;;
4694;SDS011;2361;49.540;8.390;2023-02-23T12:42:26;8.80;;;5.50;;
4694;SDS011;2361;49.540;8.390;2023-02-23T12:45:06;10.20;;;6.07;;
4694;SDS011;2361;49.540;8.390;2023-02-23T12:48:58;10.80;;;5.90;;
4694;SDS011;2361;49.540;8.390;2023-02-23T12:51:59;11.57;;;6.07;;
4694;SDS011;2361;49.540;8.390;2023-02-23T12:54:42;9.90;;;5.43;;
4694;SDS011;2361;49.540;8.390;2023-02-23T13:00:32;10.10;;;6.20;;
4694;SDS011;2361;49.540;8.390;2023-02-23T13:06:19;12.33;;;6.40;;
4694;SDS011;2361;49.540;8.390;2023-02-23T13:18:11;13.77;;;6.57;;
4694;SDS011;2361;49.540;8.390;2023-02-23T13:32:11;8.40;;;4.93;;
4694;SDS011;2361;49.540;8.390;2023-02-23T13:34:50;10.73;;;4.93;;
4694;SDS011;2361;49.540;8.390;2023-02-23T13:40:19;5.70;;;3.20;;
4694;SDS011;2361;49.540;8.390;2023-02-23T13:43:12;6.63;;;4.33;;
4694;SDS011;2361;49.540;8.390;2023-02-23T13:55:44;8.40;;;4.80;;
4694;SDS011;2361;49.540;8.390;2023-02-23T13:58:15;8.67;;;4.57;;
4694;SDS011;2361;49.540;8.390;2023-02-23T14:01:03;7.43;;;3.53;;
4694;SDS011;2361;49.540;8.390;2023-02-23T14:03:54;5.63;;;4.30;;
4694;SDS011;2361;49.540;8.390;2023-02-23T14:06:25;4.80;;;4.00;;
4694;SDS011;2361;49.540;8.390;2023-02-23T14:08:59;5.50;;;4.27;;
4694;SDS011;2361;49.540;8.390;2023-02-23T14:11:43;8.00;;;4.43;;
4694;SDS011;2361;49.540;8.390;2023-02-23T14:14:36;5.63;;;3.43;;
4694;SDS011;2361;49.540;8.390;2023-02-23T14:19:41;7.60;;;4.57;;
4694;SDS011;2361;49.540;8.390;2023-02-23T14:22:10;11.43;;;4.67;;
4694;SDS011;2361;49.540;8.390;2023-02-23T14:24:42;5.33;;;3.63;;
4694;SDS011;2361;49.540;8.390;2023-02-23T14:29:39;5.33;;;4.50;;
4694;SDS011;2361;49.540;8.390;2023-02-23T14:37:35;5.43;;;3.70;;
4694;SDS011;2361;49.540;8.390;2023-02-23T14:40:13;8.80;;;3.60;;
4694;SDS011;2361;49.540;8.390;2023-02-23T14:42:51;6.73;;;4.17;;
4694;SDS011;2361;49.540;8.390;2023-02-23T14:45:41;4.87;;;3.60;;
4694;SDS011;2361;49.540;8.390;2023-02-23T14:48:11;5.10;;;4.17;;
4694;SDS011;2361;49.540;8.390;2023-02-23T14:50:42;5.70;;;4.70;;
4694;SDS011;2361;49.540;8.390;2023-02-23T14:53:19;7.87;;;4.80;;
4694;SDS011;2361;49.540;8.390;2023-02-23T14:55:49;7.77;;;4.60;;
4694;SDS011;2361;49.540;8.390;2023-02-23T15:00:54;7.00;;;4.23;;
4694;SDS011;2361;49.540;8.390;2023-02-23T15:03:21;6.37;;;4.53;;
4694;SDS011;2361;49.540;8.390;2023-02-23T15:05:58;5.63;;;4.23;;
4694;SDS011;2361;49.540;8.390;2023-02-23T15:08:27;5.10;;;3.80;;
4694;SDS011;2361;49.540;8.390;2023-02-23T15:11:01;6.80;;;4.03;;
4694;SDS011;2361;49.540;8.390;2023-02-23T15:13:36;5.63;;;3.20;;
4694;SDS011;2361;49.540;8.390;2023-02-23T15:18:44;8.47;;;4.30;;
4694;SDS011;2361;49.540;8.390;2023-02-23T15:21:20;4.70;;;3.47;;
4694;SDS011;2361;49.540;8.390;2023-02-23T15:23:50;10.40;;;4.07;;
4694;SDS011;2361;49.540;8.390;2023-02-23T15:26:26;7.20;;;4.03;;
4694;SDS011;2361;49.540;8.390;2023-02-23T15:31:36;3.77;;;3.40;;
4694;SDS011;2361;49.540;8.390;2023-02-23T15:34:09;6.37;;;3.93;;
4694;SDS011;2361;49.540;8.390;2023-02-23T15:36:36;4.30;;;3.50;;
4694;SDS011;2361;49.540;8.390;2023-02-23T15:39:06;3.70;;;3.10;;
4694;SDS011;2361;49.540;8.390;2023-02-23T15:41:41;5.27;;;3.90;;
4694;SDS011;2361;49.540;8.390;2023-02-23T15:44:15;6.63;;;3.67;;
4694;SDS011;2361;49.540;8.390;2023-02-23T15:46:57;6.40;;;4.17;;
4694;SDS011;2361;49.540;8.390;2023-02-23T15:49:37;5.20;;;4.13;;
4694;SDS011;2361;49.540;8.390;2023-02-23T15:52:08;4.47;;;3.90;;
4694;SDS011;2361;49.540;8.390;2023-02-23T15:54:58;3.87;;;3.40;;
4694;SDS011;2361;49.540;8.390;2023-02-23T15:57:33;4.40;;;3.60;;
4694;SDS011;2361;49.540;8.390;2023-02-23T16:00:18;4.60;;;3.67;;
4694;SDS011;2361;49.540;8.390;2023-02-23T16:03:20;5.70;;;3.53;;
4694;SDS011;2361;49.540;8.390;2023-02-23T16:06:23;2.27;;;1.90;;
4694;SDS011;2361;49.540;8.390;2023-02-23T16:09:13;3.93;;;3.43;;
4694;SDS011;2361;49.540;8.390;2023-02-23T16:11:48;5.20;;;3.77;;
4694;SDS011;2361;49.540;8.390;2023-02-23T16:14:20;4.43;;;3.43;;
4694;SDS011;2361;49.540;8.390;2023-02-23T16:16:49;6.07;;;3.63;;
4694;SDS011;2361;49.540;8.390;2023-02-23T16:19:35;4.07;;;3.60;;
4694;SDS011;2361;49.540;8.390;2023-02-23T16:22:06;7.53;;;3.70;;
4694;SDS011;2361;49.540;8.390;2023-02-23T16:25:02;5.13;;;3.30;;
4694;SDS011;2361;49.540;8.390;2023-02-23T16:27:33;8.87;;;4.27;;
4694;SDS011;2361;49.540;8.390;2023-02-23T16:30:04;4.43;;;3.40;;
4694;SDS011;2361;49.540;8.390;2023-02-23T16:33:00;4.23;;;3.83;;
4694;SDS011;2361;49.540;8.390;2023-02-23T16:35:37;5.80;;;4.30;;
4694;SDS011;2361;49.540;8.390;2023-02-23T16:38:12;5.43;;;3.60;;
4694;SDS011;2361;49.540;8.390;2023-02-23T16:40:48;3.90;;;3.50;;
4694;SDS011;2361;49.540;8.390;2023-02-23T16:43:15;4.50;;;3.60;;
4694;SDS011;2361;49.540;8.390;2023-02-23T16:45:42;8.53;;;4.43;;
4694;SDS011;2361;49.540;8.390;2023-02-23T16:48:16;4.17;;;3.77;;
4694;SDS011;2361;49.540;8.390;2023-02-23T16:50:43;6.07;;;4.30;;
4694;SDS011;2361;49.540;8.390;2023-02-23T16:53:11;6.20;;;4.03;;
4694;SDS011;2361;49.540;8.390;2023-02-23T16:55:48;7.17;;;4.40;;
4694;SDS011;2361;49.540;8.390;2023-02-23T16:58:21;9.00;;;4.50;;
4694;SDS011;2361;49.540;8.390;2023-02-23T17:00:50;5.33;;;4.10;;
4694;SDS011;2361;49.540;8.390;2023-02-23T17:03:20;5.70;;;4.30;;
4694;SDS011;2361;49.540;8.390;2023-02-23T17:05:50;4.67;;;3.70;;
4694;SDS011;2361;49.540;8.390;2023-02-23T17:08:18;4.80;;;4.30;;
4694;SDS011;2361;49.540;8.390;2023-02-23T17:10:45;3.83;;;3.47;;
4694;SDS011;2361;49.540;8.390;2023-02-23T17:13:25;6.03;;;4.50;;
4694;SDS011;2361;49.540;8.390;2023-02-23T17:15:54;8.33;;;4.17;;
4694;SDS011;2361;49.540;8.390;2023-02-23T17:18:27;7.93;;;5.03;;
4694;SDS011;2361;49.540;8.390;2023-02-23T17:20:57;6.47;;;4.90;;
4694;SDS011;2361;49.540;8.390;2023-02-23T17:23:28;8.80;;;5.23;;
4694;SDS011;2361;49.540;8.390;2023-02-23T17:26:19;6.27;;;5.00;;
4694;SDS011;2361;49.540;8.390;2023-02-23T17:28:50;6.43;;;5.20;;
4694;SDS011;2361;49.540;8.390;2023-02-23T17:31:19;7.37;;;5.00;;
4694;SDS011;2361;49.540;8.390;2023-02-23T17:33:48;13.03;;;5.90;;
4694;SDS011;2361;49.540;8.390;2023-02-23T17:36:15;7.03;;;5.23;;
4694;SDS011;2361;49.540;8.390;2023-02-23T17:38:43;9.80;;;5.20;;
4694;SDS011;2361;49.540;8.390;2023-02-23T17:41:14;8.40;;;5.77;;
4694;SDS011;2361;49.540;8.390;2023-02-23T17:43:44;5.57;;;4.97;;